RJOI/IWA METAR and TAF weather

Enter ICAO airport designator
Station Type Date Time Source
RJOI METAR 2019/10/14 05:55 UTC NOAA

RJOI 140555Z 20006KT 9999 FEW030 FEW060 23/13 A3007 RMK SLP181 T02330128 10239 20200 56014


Station Type Date Time Source
RJOI Decoded METAR 2019/10/14 05:55 UTC NOAA

MCAS IWAKUNI,JAPAN, JA, Japan (RJOI) 34-09N 132-14E 5M
Oct 14, 2019 - 01:55 AM EDT / 2019.10.14 0555 UTC
Wind: from the SSW (200 degrees) at 7 MPH (6 KT):0
Visibility: greater than 7 mile(s):0
Sky conditions: mostly clear
Temperature: 73.9 F (23.3 C)
Dew Point: 55.0 F (12.8 C)
Relative Humidity: 51%
Pressure (altimeter): 30.07 in. Hg (1018 hPa)
Pressure tendency: 0.04 inches (1.4 hPa) lower than three hours ago
ob: RJOI 140555Z 20006KT 9999 FEW030 FEW060 23/13 A3007 RMK SLP181 T02330128 10239 20200 56014
cycle: 6

Station Type Date Time Source
RJOI TAF 2019/10/14 05:59 UTC NOAA

TAF RJOI 1405/1505 VRB06KT 9999 FEW030 FEW050 QNH3003INS
FM141200 02009KT 9999 FEW020 QNH3012INS
BECMG 1421/1423 04012G20KT 9999 FEW020 BKN030 BKN180 QNH3017INS T24/1406Z T14/1422Z

Example: see airport list